Weather observations for the past three days for
Saratoga WY
Metric (Imperial)
Date Time (mdt) Wind (kph) Vis. (km) Weather Sky Cond. Temperature (ºC) Relative Humidity Wind Chill (°C) Heat Index (°C) Pressure Precipitation (cm)
Air Dwpt 6 hour altimeter (cm) sea level (mb) 1 hr 3 hr 6 hr
Max. Min.
04 14:35 W 41 G 74 16.09 Light Rain and Breezy SCT032 BKN060 OVC090 8 2 66% 4 75.95 0.0
04 14:15 NW 24 G 43 16.09 Overcast OVC090 14 -3 31% 75.84 0.0
04 13:55 NW 11 16.09 Mostly Cloudy BKN090 BKN120 17 -6 20% 75.79 0.0
04 13:35 N 11 16.09 Mostly Cloudy SCT080 BKN120 16 -6 22% 75.82 0.0
04 13:15 N 15 G 50 16.09 Mostly Cloudy BKN080 BKN110 17 -5 22% 75.84 0.0
04 12:55 W 22 G 48 16.09 Mostly Cloudy BKN095 BKN120 18 -5 21% 75.87 0.0
04 12:35 SW 35 G 44 16.09 Mostly Cloudy and Breezy SCT080 BKN110 18 -5 21% 75.9 0.0
04 12:15 SW 24 G 46 16.09 Partly Cloudy SCT090 18 -6 19% 75.9 0.0
04 11:55 SW 28 G 44 16.09 Partly Cloudy SCT110 17 -5 22% 75.92 0.0
04 11:35 W 22 G 46 16.09 Mostly Cloudy BKN110 17 -4 24% 75.95 0.0
04 11:15 W 28 G 44 16.09 Partly Cloudy SCT110 17 -4 24% 75.97 0.0
04 10:55 W 30 G 37 16.09 Fair CLR 16 -5 23% 75.95 0.0
04 10:35 SW 28 G 43 16.09 Partly Cloudy SCT085 17 -7 19% 75.95 0.0
04 10:15 W 28 G 43 16.09 Mostly Cloudy BKN085 16 -7 20% 75.95 0.0
04 09:55 W 31 G 44 16.09 Overcast SCT065 OVC095 15 -7 21% 75.95 0.0
04 09:35 SW 24 G 37 16.09 Overcast BKN095 OVC110 15 -6 23% 75.97 0.0
04 09:15 N 7 16.09 Mostly Cloudy BKN110 13 -6 26% 76 0.0
04 08:55 E 9 16.09 Mostly Cloudy BKN110 11 -6 30% 76.02 0.0
04 08:35 SE 11 16.09 Partly Cloudy SCT120 10 -6 32% 9 76.02 0.0
04 08:15 E 11 16.09 Partly Cloudy SCT120 8 -6 37% 6 76.02 0.0
04 07:55 SE 11 16.09 Mostly Cloudy BKN120 9 -7 32% 8 76 0.0
04 07:35 Calm 16.09 Mostly Cloudy SCT080 SCT095 BKN120 7 -6 39% 76 0.0
04 07:15 S 7 16.09 Mostly Cloudy SCT095 BKN110 6 -7 39% 5 76 0.0
04 06:55 S 9 16.09 Mostly Cloudy SCT100 BKN120 7 -7 37% 5 76 0.0
04 06:35 S 9 16.09 Partly Cloudy SCT100 SCT120 5 -7 42% 3 75.95 0.0
04 06:15 SE 13 16.09 Partly Cloudy SCT120 3 -7 48% 0 75.95 0.0
04 05:55 SE 19 16.09 Partly Cloudy SCT110 2 -7 52% -2 75.95 0.0
04 05:35 SE 13 16.09 Mostly Cloudy BKN110 3 -7 48% 0 75.95 0.0
04 05:15 SE 11 16.09 Mostly Cloudy BKN110 3 -7 48% 0 75.95 0.0
04 04:55 SE 7 16.09 Partly Cloudy SCT100 SCT120 4 -7 45% 2 75.95 0.0
04 04:35 SE 13 16.09 Fair CLR 3 -8 45% 0 75.95 0.0
04 04:15 SE 13 16.09 Partly Cloudy SCT120 1 -8 51% -2 75.95 0.0
04 03:55 S 11 16.09 Partly Cloudy SCT120 2 -8 48% -1 75.95 0.0
04 03:15 SE 7 16.09 Fair CLR 2 -8 48% 0 75.95 0.0
04 02:55 SE 11 16.09 Fair CLR 1 -8 51% -2 75.97 0.0
04 02:30 SE 6 16.09 Fair CLR 2 -8 48% 76 0.0
04 02:15 SE 6 16.09 Fair CLR 1 -8 51% 76 0.0
04 01:55 SE 7 16.09 Fair CLR 1 -7 56% -1 76 0.0
04 01:35 S 7 16.09 Partly Cloudy SCT110 2 -8 48% 0 76.02 0.0
04 01:15 Calm 16.09 Fair CLR 2 -8 48% 76.02 0.0
04 00:55 SE 9 16.09 Partly Cloudy SCT120 3 -8 45% 1 76.05 0.0
04 00:35 SE 9 16.09 Partly Cloudy SCT120 3 -8 45% 1 76.05 0.0
04 00:15 Calm 16.09 Partly Cloudy SCT120 5 -9 36% 76.07 0.0
03 23:55 SE 9 16.09 Fair CLR 3 -9 41% 1 76.05 0.0
03 23:35 S 11 16.09 Partly Cloudy SCT100 5 -9 36% 3 76.07 0.0
03 23:15 S 15 16.09 Partly Cloudy SCT120 6 -8 36% 3 76.07 0.0
03 22:55 SE 9 16.09 Mostly Cloudy BKN120 6 -8 36% 4 76.1 0.0
03 22:35 SE 11 16.09 Fair CLR 5 -8 39% 3 76.1 0.0
03 22:15 SE 9 16.09 Fair CLR 5 -8 39% 3 76.1 0.0
03 21:55 Calm 16.09 Fair CLR 7 -8 34% 76.1 0.0
03 21:35 SW 19 16.09 Fair CLR 9 -10 25% 7 76.1 0.0
03 21:15 SW 17 16.09 Fair CLR 9 -10 25% 7 76.1 0.0
03 20:55 SW 15 16.09 Fair CLR 9 -10 25% 7 76.1 0.0
03 20:35 SW 15 16.09 Fair CLR 10 -11 22% 8 76.07 0.0
03 20:15 SW 13 16.09 Fair CLR 9 -10 25% 7 76.07 0.0
03 19:55 W 9 16.09 Fair CLR 12 -9 22% 76.07 0.0
03 19:35 W 13 16.09 Fair CLR 15 -10 17% 76.07 0.0
03 19:15 W 9 16.09 Fair CLR 16 -11 15% 76.1 0.0
03 18:55 W 11 16.09 Fair CLR 17 -11 14% 76.1 0.0
03 18:35 W 15 16.09 Fair CLR 17 -11 14% 76.1 0.0
03 18:15 W 19 G 31 16.09 Partly Cloudy SCT120 17 -11 14% 76.12 0.0
03 17:55 W 17 16.09 Mostly Cloudy BKN110 17 -11 14% 76.12 0.0
03 17:35 W 13 16.09 Mostly Cloudy BKN110 17 -11 14% 76.12 0.0
03 17:15 W 31 16.09 Mostly Cloudy SCT095 BKN110 17 -11 14% 76.15 0.0
03 16:55 NW 17 16.09 Overcast OVC110 17 -11 14% 76.15 0.0
03 16:35 W 24 G 41 16.09 Mostly Cloudy BKN110 17 -11 14% 76.15 0.0
03 16:15 W 26 G 39 16.09 Mostly Cloudy SCT095 BKN120 17 -11 14% 76.17 0.0
03 15:55 W 19 G 48 16.09 Overcast SCT095 OVC120 18 -12 12% 76.17 0.0
03 15:35 W 22 G 33 16.09 Mostly Cloudy BKN120 18 -12 12% 76.2 0.0
03 15:15 W 26 G 33 16.09 Partly Cloudy SCT110 17 -12 13% 76.23 0.0
03 14:55 W 24 G 37 16.09 Mostly Cloudy BKN110 18 -12 12% 76.25 0.0
03 14:35 W 22 G 28 16.09 Partly Cloudy SCT120 18 -12 12% 76.28 0.0
03 14:15 NW 17 16.09 Partly Cloudy SCT120 17 -12 13% 76.28 0.0
03 13:55 W 19 G 41 16.09 Partly Cloudy SCT120 19 -12 11% 76.28 0.0
03 13:35 SW 19 G 28 16.09 Fair CLR 18 -12 12% 76.3 0.0
03 13:15 W 31 G 41 16.09 Fair CLR 18 -12 12% 76.33 0.0
03 12:35 W 31 G 41 16.09 Fair CLR 17 -12 13% 76.38 0.0
03 12:15 W 31 G 43 16.09 Fair CLR 17 -12 13% 76.38 0.0
03 11:55 W 35 G 44 16.09 Fair and Breezy CLR 17 -11 14% 76.4 0.0
03 11:35 W 31 16.09 Fair CLR 17 -11 14% 76.4 0.0
03 11:15 W 20 G 37 16.09 Partly Cloudy SCT100 17 -11 14% 76.43 0.0
03 10:55 W 20 G 43 16.09 Fair CLR 16 -10 16% 76.45 0.0
03 10:35 W 20 G 37 16.09 Fair CLR 16 -10 16% 76.45 0.0
03 10:15 W 15 G 35 16.09 Fair CLR 16 -10 16% 76.45 0.0
03 09:55 W 17 G 33 16.09 Fair CLR 15 -8 20% 76.48 0.0
03 09:35 W 19 G 28 16.09 Fair CLR 15 -8 20% 76.48 0.0
03 09:15 W 24 G 30 16.09 Fair CLR 14 -8 21% 76.48 0.0
03 08:55 W 20 G 28 16.09 Fair CLR 13 -8 23% 76.48 0.0
03 08:35 SW 19 16.09 Fair CLR 12 -7 26% 76.48 0.0
03 08:15 SE 6 16.09 Fair CLR 11 -6 30% 76.5 0.0
03 07:55 E 9 16.09 Fair CLR 7 -7 37% 5 76.5 0.0
03 07:35 SE 11 16.09 Fair CLR 7 -7 37% 5 76.5 0.0
03 07:15 E 6 16.09 Fair CLR 5 -7 42% 76.48 0.0
03 06:35 Calm 16.09 Mostly Cloudy BKN120 2 -7 52% 76.45 0.0
03 06:15 Calm 16.09 Mostly Cloudy BKN120 4 -10 36% 76.43 0.0
03 05:55 Calm 16.09 Mostly Cloudy BKN120 5 -8 39% 76.45 0.0
03 05:35 W 6 16.09 Partly Cloudy SCT120 6 -10 31% 76.43 0.0
03 05:15 E 9 16.09 Fair CLR 3 -8 45% 1 76.43 0.0
03 04:55 E 6 16.09 Fair CLR 1 -8 51% 76.43 0.0
03 04:35 SE 9 16.09 Partly Cloudy SCT120 2 -8 48% -0 76.43 0.0
03 04:15 E 6 16.09 Fair CLR 1 -8 51% 76.45 0.0
03 03:55 SE 7 16.09 Fair CLR 1 -7 56% -1 76.45 0.0
03 03:35 SE 9 16.09 Fair CLR 2 -7 52% -0 76.45 0.0
03 03:15 SE 6 16.09 Fair CLR 1 -7 56% 76.45 0.0
03 02:55 NE 6 16.09 Fair CLR 2 -8 48% 76.48 0.0
03 02:35 E 7 16.09 Fair CLR 3 -8 45% 1 76.48 0.0
03 02:15 SE 7 16.09 Fair CLR 3 -8 45% 1 76.48 0.0
03 01:55 SE 9 16.09 Fair CLR 2 -8 48% -0 76.48 0.0
03 01:35 SE 9 16.09 Fair CLR 1 -8 51% -2 76.5 0.0
03 01:15 SE 9 16.09 Fair CLR 1 -8 51% -2 76.5 0.0
03 00:55 SE 7 16.09 Fair CLR 1 -8 51% -1 76.5 0.0
03 00:35 SE 13 16.09 Fair CLR 2 -9 44% -1 76.5 0.0
03 00:15 SE 15 16.09 Fair CLR 2 -9 44% -2 76.53 0.0
02 23:55 SE 11 16.09 Fair CLR 3 -10 38% 0 76.53 0.0
02 23:35 SE 11 16.09 Fair CLR 3 -10 38% 0 76.53 0.0
02 23:15 Calm 16.09 Fair CLR 3 -9 41% 76.56 0.0
02 22:55 SE 11 16.09 Fair CLR 3 -9 41% 0 76.56 0.0
02 22:35 E 7 16.09 Fair CLR 3 -8 45% 1 76.56 0.0
02 22:15 S 13 16.09 Fair CLR 7 -10 29% 5 76.56 0.0
02 21:55 SW 20 16.09 Fair CLR 8 -10 27% 5 76.56 0.0
02 21:35 SW 15 16.09 Fair CLR 8 -11 25% 6 76.53 0.0
02 21:15 SW 19 16.09 Fair CLR 7 -11 27% 4 76.53 0.0
02 20:55 SW 13 16.09 Fair CLR 8 -11 25% 6 76.53 0.0
02 20:35 SW 15 16.09 Fair CLR 8 -11 25% 6 76.53 0.0
02 20:15 SW 15 16.09 Fair CLR 10 -11 22% 8 76.53 0.0
02 19:55 SW 13 16.09 Fair CLR 11 -11 20% 76.53 0.0
02 19:35 W 13 16.09 Fair CLR 13 -12 16% 76.53 0.0
02 19:15 W 15 16.09 Fair CLR 14 -12 15% 76.53 0.0
02 18:55 W 19 16.09 Fair CLR 16 -14 11% 76.53 0.0
02 18:35 W 20 16.09 Fair CLR 16 -12 13% 76.53 0.0
02 18:15 W 19 G 28 16.09 Fair CLR 17 -12 13% 76.53 0.0
02 17:35 W 20 G 33 16.09 Fair CLR 17 -15 10% 76.56 0.0
02 17:15 W 24 G 31 16.09 Fair CLR 17 -14 11% 76.56 0.0
02 16:55 W 22 G 33 16.09 Fair CLR 17 -16 9% 76.58 0.0
02 16:35 W 20 G 35 16.09 Fair CLR 17 -14 11% 76.58 0.0
02 16:15 W 20 G 30 16.09 Fair CLR 17 -12 13% 76.58 0.0
02 15:55 W 19 G 30 16.09 Fair CLR 17 -12 13% 76.61 0.0
02 15:35 NW 15 G 26 16.09 Fair CLR 18 -12 12% 76.61 0.0
02 15:15 W 11 G 26 16.09 Fair CLR 17 -12 13% 76.63 0.0
02 14:35 W 7 G 26 16.09 Fair CLR 17 -11 14% 76.68 0.0
02 14:15 NW 15 16.09 Fair CLR 16 -12 13% 76.68 0.0
02 13:55 Calm 16.09 Fair CLR 16 -12 13% 76.71 0.0
02 13:35 W 6 16.09 Fair CLR 16 -12 13% 76.71 0.0
02 13:15 W 22 G 31 16.09 Fair CLR 16 -12 13% 76.73 0.0
02 12:35 SW 15 16.09 Fair CLR 16 -12 13% 76.76 0.0
02 12:15 SW 7 16.09 Fair CLR 15 -11 16% 76.78 0.0
02 11:55 NW 20 G 28 16.09 Fair CLR 15 -11 16% 76.81 0.0
02 11:35 W 6 16.09 Fair CLR 13 -11 18% 76.84 0.0
02 11:15 W 11 16.09 Fair CLR 13 -10 19% 76.84 0.0
02 10:55 NW 9 16.09 Fair CLR 13 -9 21% 76.84 0.0
02 10:35 NE 9 16.09 Fair CLR 13 -10 19% 76.84 0.0
02 10:15 W 6 16.09 Fair CLR 12 -9 22% 76.84 0.0
02 09:55 S 7 16.09 Fair CLR 11 -9 24% 76.86 0.0
02 09:35 S 9 16.09 Fair CLR 11 -7 28% 76.86 0.0
02 09:15 SE 9 16.09 Fair CLR 10 -7 30% 9 76.86 0.0
02 08:55 SE 9 16.09 Fair CLR 8 -7 34% 7 76.86 0.0
02 08:35 SE 13 16.09 Fair CLR 7 -7 37% 5 76.86 0.0
02 07:55 SE 11 16.09 Fair CLR 4 -6 48% 2 76.86 0.0
02 07:35 SE 13 16.09 Fair CLR 3 -6 52% 0 76.86 0.0
02 06:55 S 15 16.09 Fair CLR 0 -6 64% -4 76.84 0.0
02 06:35 S 11 16.09 Fair CLR -1 -7 64% -4 76.84 0.0
02 06:15 SE 6 16.09 Fair CLR -3 -7 74% 76.84 0.0
02 05:55 S 9 16.09 Fair CLR -3 -7 74% -6 76.81 0.0
02 05:35 S 9 16.09 Fair CLR -3 -7 74% -6 76.81 0.0
02 05:15 SE 9 16.09 Fair CLR -3 -7 74% -6 76.81 0.0
02 04:55 SE 6 16.09 Fair CLR -3 -7 74% 76.84 0.0
02 04:35 S 11 16.09 Fair CLR -2 -7 69% -6 76.84 0.0
02 04:15 S 15 16.09 Fair CLR -3 -8 69% -8 76.81 0.0
02 03:55 S 13 16.09 Fair CLR -2 -8 64% -6 76.81 0.0
02 03:35 S 11 16.09 Fair CLR -2 -8 64% -6 76.81 0.0
02 03:15 SE 6 16.09 Fair CLR -1 -8 59% 76.81 0.0
02 02:55 S 9 16.09 Fair CLR -2 -8 64% -5 76.81 0.0
02 02:35 S 9 16.09 Fair CLR -1 -7 64% -4 76.84 0.0
02 02:15 S 6 16.09 Fair CLR -1 -7 64% 76.84 0.0
02 01:55 S 7 16.09 Fair CLR -1 -7 64% -3 76.84 0.0
02 01:35 S 9 16.09 Fair CLR -1 -7 64% -4 76.84 0.0
02 01:15 SE 9 16.09 Fair CLR -1 -7 64% -4 76.84 0.0
02 00:55 S 13 16.09 Fair CLR 0 -7 60% -4 76.84 0.0
02 00:35 S 11 16.09 Fair CLR 0 -7 60% -3 76.84 0.0
02 00:15 SE 6 16.09 Fair CLR 0 -7 60% 76.84 0.0
01 23:55 Calm 16.09 Fair CLR 0 -8 55% 76.81 0.0
01 23:35 S 6 16.09 Fair CLR 1 -8 51% 76.81 0.0
01 23:15 S 13 16.09 Fair CLR 1 -8 51% -2 76.78 0.0
01 22:55 S 7 16.09 Fair CLR 1 -7 56% -1 76.78 0.0
01 22:35 Calm 16.09 Fair CLR 2 -8 48% 76.81 0.0
01 22:15 Calm 16.09 Fair CLR 5 -8 39% 76.81 0.0
01 21:55 Calm 16.09 Fair CLR 3 -8 45% 76.78 0.0
01 21:35 SE 7 16.09 Fair CLR 4 -8 42% 2 76.76 0.0
01 21:15 NE 6 16.09 Fair CLR 6 -8 36% 76.76 0.0
01 20:55 NE 9 16.09 Fair CLR 7 -8 34% 5 76.73 0.0
01 20:35 N 11 16.09 Partly Cloudy SCT090 8 -8 32% 6 76.71 0.0
01 20:15 NE 11 16.09 Overcast OVC095 10 -9 26% 9 76.71 0.0
01 19:55 N 11 16.09 Mostly Cloudy BKN095 10 -9 26% 9 76.66 0.0
01 19:35 NW 11 16.09 Mostly Cloudy BKN095 11 -10 22% 76.66 0.0
01 19:15 NW 17 16.09 Mostly Cloudy BKN095 11 -12 19% 76.63 0.0
01 18:55 NW 15 16.09 Partly Cloudy SCT095 11 -11 20% 76.63 0.0
01 18:35 NW 19 16.09 Partly Cloudy SCT095 12 -12 18% 76.63 0.0
01 18:15 NW 17 16.09 Partly Cloudy SCT095 12 -12 18% 76.63 0.0
01 17:55 N 9 G 26 16.09 Fair CLR 12 -12 18% 76.63 0.0
01 17:35 NW 9 16.09 Fair CLR 12 -13 16% 76.63 0.0
01 17:15 NW 9 16.09 Fair CLR 11 -12 19% 76.63 0.0
01 16:55 N 11 G 17 16.09 Partly Cloudy SCT095 12 -12 18% 76.63 0.0
01 16:35 N 13 16.09 Partly Cloudy SCT095 11 -12 19% 76.63 0.0
01 16:15 N 6 G 13 16.09 Partly Cloudy SCT095 12 -12 18% 76.63 0.0
01 15:55 N 15 16.09 Partly Cloudy SCT095 12 -13 16% 76.63 0.0
01 15:35 NW 15 16.09 Partly Cloudy SCT095 13 -12 16% 76.66 0.0
01 15:15 N 15 G 26 16.09 Partly Cloudy SCT095 12 -12 18% 76.68 0.0
01 14:55 N 15 16.09 Partly Cloudy SCT085 12 -12 18% 76.66 0.0
Date Time (mdt) Wind (kph) Vis. (km) Weather Sky Cond. Air Dwpt Max. Min. Relative Humidity Wind Chill (°C) Heat Index (°C) altimeter (cm) sea level (mb) 1 hr 3 hr 6 hr
6 hour
Temperature (ºC) Pressure Precipitation (cm)